createdAt,value
2019-01-29T00:03:04.438Z,95940.39
2019-01-29T00:06:10.925Z,95957.20
2019-01-29T00:09:17.494Z,95957.38
2019-01-29T00:12:24.138Z,95964.52
2019-01-29T00:15:30.855Z,95972.53
2019-01-29T00:18:37.518Z,95973.08
2019-01-29T00:21:44.703Z,95977.20
2019-01-29T00:24:51.766Z,95982.17
2019-01-29T00:27:58.267Z,95992.86
2019-01-29T00:31:04.806Z,95987.30
2019-01-29T00:34:11.825Z,95994.09
2019-01-29T00:37:18.498Z,95996.58
2019-01-29T00:40:25.239Z,96013.60
2019-01-29T00:43:31.427Z,96019.16
2019-01-29T00:46:42.834Z,96040.70
2019-01-29T00:49:49.621Z,96030.77
2019-01-29T00:52:56.378Z,96038.48
2019-01-29T00:56:02.657Z,96040.63
2019-01-29T00:59:09.290Z,96051.27
2019-01-29T01:02:18.462Z,96051.56
2019-01-29T01:05:24.819Z,96055.93
2019-01-29T01:08:31.890Z,96057.41
2019-01-29T01:11:41.227Z,96066.52
2019-01-29T01:14:47.579Z,96068.28
2019-01-29T01:17:53.984Z,96072.66
2019-01-29T01:21:01.128Z,96079.12
2019-01-29T01:24:07.706Z,96074.85
2019-01-29T01:27:14.597Z,96081.75
2019-01-29T01:30:21.722Z,96087.13
2019-01-29T01:33:28.517Z,96092.22
2019-01-29T01:36:35.727Z,96092.80
2019-01-29T01:39:43.196Z,96101.50
2019-01-29T01:42:49.968Z,96104.58
2019-01-29T01:45:57.649Z,96106.70
2019-01-29T01:49:04.628Z,96110.05
2019-01-29T01:52:11.302Z,96108.83
2019-01-29T01:55:19.690Z,96113.72
2019-01-29T01:58:26.369Z,96109.81
2019-01-29T02:01:32.684Z,96116.38
2019-01-29T02:04:39.873Z,96128.89
2019-01-29T02:07:46.562Z,96130.30
2019-01-29T02:10:53.555Z,96143.30
2019-01-29T02:14:02.001Z,96141.64
2019-01-29T02:17:08.703Z,96143.63
2019-01-29T02:20:15.522Z,96144.27
2019-01-29T02:23:22.216Z,96140.27
2019-01-29T02:26:29.374Z,96143.03
2019-01-29T02:29:36.501Z,96151.42
2019-01-29T02:32:43.651Z,96151.45
2019-01-29T02:35:50.529Z,96154.38
2019-01-29T02:38:57.324Z,96151.91
2019-01-29T02:42:04.200Z,96156.56
2019-01-29T02:45:11.512Z,96164.70
2019-01-29T02:48:18.283Z,96161.64
2019-01-29T02:51:25.048Z,96167.39
2019-01-29T02:54:31.887Z,96174.02
2019-01-29T02:57:38.952Z,96179.95
2019-01-29T03:00:45.580Z,96174.48
2019-01-29T03:03:52.569Z,96184.48
2019-01-29T03:06:58.911Z,96185.34
2019-01-29T03:10:07.199Z,96189.03
2019-01-29T03:13:16.186Z,96198.72
2019-01-29T03:16:23.067Z,96193.30
2019-01-29T03:19:30.158Z,96198.83
2019-01-29T03:22:38.360Z,96200.33
2019-01-29T03:25:45.257Z,96203.05
2019-01-29T03:28:52.129Z,96209.47
2019-01-29T03:31:58.944Z,96214.36
2019-01-29T03:35:06.304Z,96220.55
2019-01-29T03:38:12.835Z,96218.21
2019-01-29T03:41:19.239Z,96218.02
2019-01-29T03:44:25.670Z,96223.80
2019-01-29T03:47:32.305Z,96226.67
2019-01-29T03:50:38.980Z,96224.45
2019-01-29T03:53:45.230Z,96219.25
2019-01-29T03:56:51.542Z,96225.53
2019-01-29T03:59:57.876Z,96229.64
2019-01-29T04:03:04.674Z,96227.97
2019-01-29T04:06:11.141Z,96234.16
2019-01-29T04:09:17.688Z,96236.50
2019-01-29T04:12:24.668Z,96241.67
2019-01-29T04:15:31.147Z,96242.98
2019-01-29T04:18:38.251Z,96244.08
2019-01-29T04:21:45.416Z,96241.95
2019-01-29T04:24:52.033Z,96240.02
2019-01-29T04:27:58.995Z,96242.56
2019-01-29T04:31:05.982Z,96250.15
2019-01-29T04:34:12.683Z,96249.18
2019-01-29T04:37:19.356Z,96258.25
2019-01-29T04:40:25.523Z,96252.34
2019-01-29T04:43:32.360Z,96258.27
2019-01-29T04:46:39.477Z,96259.31
2019-01-29T04:49:46.533Z,96264.34
2019-01-29T04:52:53.090Z,96262.22
2019-01-29T04:55:59.972Z,96263.35
2019-01-29T04:59:06.488Z,96261.67
2019-01-29T05:02:12.794Z,96264.69
2019-01-29T05:05:20.107Z,96275.13
2019-01-29T05:08:26.766Z,96273.66
2019-01-29T05:11:33.915Z,96280.00
2019-01-29T05:14:40.705Z,96273.70
2019-01-29T05:17:47.248Z,96277.97
2019-01-29T05:20:55.399Z,96287.88
2019-01-29T05:24:06.766Z,96292.34
2019-01-29T05:27:10.405Z,96292.34
2019-01-29T05:30:21.881Z,96295.84
2019-01-29T05:33:28.418Z,96297.67
2019-01-29T05:36:35.520Z,96295.31
2019-01-29T05:39:42.297Z,96295.44
2019-01-29T05:42:48.787Z,96298.57
2019-01-29T05:45:55.250Z,96306.70
2019-01-29T05:49:01.515Z,96307.87
2019-01-29T05:52:07.786Z,96313.70
2019-01-29T05:55:14.639Z,96322.83
2019-01-29T05:58:21.338Z,96321.84
2019-01-29T06:01:27.910Z,96324.53
2019-01-29T06:04:34.573Z,96324.70
2019-01-29T06:07:41.456Z,96335.27
2019-01-29T06:10:48.136Z,96337.59
2019-01-29T06:13:54.804Z,96339.45
2019-01-29T06:17:01.642Z,96340.36
2019-01-29T06:20:11.350Z,96336.63
2019-01-29T06:23:17.915Z,96332.27
2019-01-29T06:26:25.274Z,96326.70
2019-01-29T06:29:31.883Z,96329.42
2019-01-29T06:32:42.340Z,96337.02
2019-01-29T06:35:49.268Z,96333.98
2019-01-29T06:38:56.156Z,96336.84
2019-01-29T06:42:03.080Z,96337.06
2019-01-29T06:45:12.292Z,96344.33
2019-01-29T06:48:18.999Z,96346.88
2019-01-29T06:51:25.792Z,96352.23
2019-01-29T06:54:34.144Z,96354.27
2019-01-29T06:57:40.716Z,96359.73
2019-01-29T07:00:47.580Z,96358.16
2019-01-29T07:03:53.835Z,96362.57
2019-01-29T07:07:00.486Z,96372.19
2019-01-29T07:10:08.138Z,96370.98
2019-01-29T07:13:14.918Z,96375.61
2019-01-29T07:16:36.670Z,96378.06
2019-01-29T07:19:49.230Z,96389.33
2019-01-29T07:22:55.806Z,96389.45
2019-01-29T07:26:02.277Z,96398.47
2019-01-29T07:29:09.322Z,96395.25
2019-01-29T07:32:16.528Z,96403.20
2019-01-29T07:35:22.904Z,96400.41
2019-01-29T07:38:29.397Z,96403.99
2019-01-29T07:41:36.919Z,96413.22
2019-01-29T07:44:43.820Z,96410.72
2019-01-29T07:47:50.226Z,96409.70
2019-01-29T07:50:56.893Z,96414.42
2019-01-29T07:54:04.153Z,96414.19
2019-01-29T07:57:10.741Z,96419.98
2019-01-29T08:00:17.325Z,96422.00
2019-01-29T08:03:24.015Z,96420.47
2019-01-29T08:06:30.453Z,96424.41
2019-01-29T08:09:37.118Z,96421.37
2019-01-29T08:12:46.186Z,96420.73
2019-01-29T08:15:52.516Z,96422.63
2019-01-29T08:18:59.468Z,96426.27
2019-01-29T08:22:06.119Z,96429.17
2019-01-29T08:25:13.027Z,96428.66
2019-01-29T08:28:19.807Z,96434.39
2019-01-29T08:31:26.314Z,96435.48
2019-01-29T08:34:33.042Z,96445.33
2019-01-29T08:37:40.051Z,96446.53
2019-01-29T08:40:46.953Z,96449.25
2019-01-29T08:43:53.295Z,96446.12
2019-01-29T08:46:59.770Z,96452.36
2019-01-29T08:50:08.987Z,96448.02
2019-01-29T08:53:15.541Z,96452.34
2019-01-29T08:56:21.731Z,96449.80
2019-01-29T08:59:28.114Z,96453.63
2019-01-29T09:02:35.069Z,96445.44
2019-01-29T09:05:41.664Z,96454.67
2019-01-29T09:08:48.296Z,96453.99
2019-01-29T09:11:54.870Z,96451.55
2019-01-29T09:15:01.468Z,96455.77
2019-01-29T09:18:08.007Z,96451.28
2019-01-29T09:21:14.395Z,96451.00
2019-01-29T09:24:21.086Z,96453.23
2019-01-29T09:27:27.699Z,96452.71
2019-01-29T09:30:34.288Z,96449.30
2019-01-29T09:33:41.195Z,96449.66
2019-01-29T09:36:47.856Z,96448.74
2019-01-29T09:39:54.509Z,96453.05
2019-01-29T09:43:01.273Z,96447.73
2019-01-29T09:46:08.109Z,96450.19
2019-01-29T09:49:14.382Z,96447.02
2019-01-29T09:52:21.208Z,96447.27
2019-01-29T09:55:29.623Z,96448.63
2019-01-29T09:58:36.636Z,96444.19
2019-01-29T10:01:43.400Z,96446.44
2019-01-29T10:04:49.828Z,96446.11
2019-01-29T10:07:56.525Z,96454.13
2019-01-29T10:11:03.590Z,96454.16
2019-01-29T10:14:10.059Z,96449.91
2019-01-29T10:17:16.909Z,96445.33
2019-01-29T10:20:23.647Z,96444.52
2019-01-29T10:23:30.344Z,96442.19
2019-01-29T10:26:39.365Z,96442.08
2019-01-29T10:29:45.851Z,96430.16
2019-01-29T10:32:52.431Z,96430.53
2019-01-29T10:35:58.962Z,96425.82
2019-01-29T10:39:09.842Z,96423.65
2019-01-29T10:42:16.253Z,96415.73
2019-01-29T10:45:23.092Z,96411.54
2019-01-29T10:48:29.750Z,96404.02
2019-01-29T10:51:37.078Z,96400.24
2019-01-29T10:54:44.094Z,96400.69
2019-01-29T10:57:50.877Z,96398.35
2019-01-29T11:00:57.562Z,96400.88
2019-01-29T11:04:04.131Z,96398.70
2019-01-29T11:07:11.128Z,96397.17
2019-01-29T11:10:17.814Z,96401.07
2019-01-29T11:13:25.589Z,96398.48
2019-01-29T11:16:32.708Z,96400.12
2019-01-29T11:19:39.767Z,96406.94
2019-01-29T11:22:47.181Z,96400.73
2019-01-29T11:25:56.125Z,96403.81
2019-01-29T11:29:01.865Z,96404.47
2019-01-29T11:32:08.229Z,96400.91
2019-01-29T11:35:15.069Z,96399.91
2019-01-29T11:38:22.694Z,96393.54
2019-01-29T11:41:30.991Z,96398.03
2019-01-29T11:44:37.551Z,96392.25
2019-01-29T11:47:44.080Z,96391.43
2019-01-29T11:50:50.853Z,96396.14
2019-01-29T11:53:57.442Z,96390.11
2019-01-29T11:57:04.108Z,96386.30
2019-01-29T12:00:16.067Z,96380.81
2019-01-29T12:03:22.610Z,96386.63
2019-01-29T12:06:29.201Z,96378.63
2019-01-29T12:09:35.982Z,96384.27
2019-01-29T12:12:43.842Z,96370.77
2019-01-29T12:15:49.940Z,96376.41
2019-01-29T12:18:58.336Z,96369.17
2019-01-29T12:22:05.067Z,96363.73
2019-01-29T12:25:11.989Z,96356.05
2019-01-29T12:28:18.544Z,96357.87
2019-01-29T12:31:25.012Z,96350.47
2019-01-29T12:34:32.029Z,96352.14
2019-01-29T12:37:38.794Z,96354.35
2019-01-29T12:40:45.375Z,96351.63
2019-01-29T12:43:52.192Z,96352.56
2019-01-29T12:46:59.058Z,96350.16
2019-01-29T12:50:07.811Z,96342.16
2019-01-29T12:53:16.800Z,96346.16
2019-01-29T12:56:23.338Z,96340.94
2019-01-29T12:59:30.452Z,96340.19
2019-01-29T13:02:36.757Z,96331.72
2019-01-29T13:05:43.972Z,96332.38
2019-01-29T13:08:50.601Z,96323.35
2019-01-29T13:11:57.341Z,96325.36
2019-01-29T13:15:03.657Z,96314.84
2019-01-29T13:18:12.166Z,96315.22
2019-01-29T13:21:19.273Z,96307.61
2019-01-29T13:24:26.135Z,96303.33
2019-01-29T13:27:32.598Z,96310.45
2019-01-29T13:30:39.671Z,96311.67
2019-01-29T13:33:46.290Z,96306.33
2019-01-29T13:36:53.107Z,96303.60
2019-01-29T13:39:59.780Z,96307.27
2019-01-29T13:43:06.609Z,96303.87
2019-01-29T13:46:13.149Z,96295.09
2019-01-29T13:49:19.576Z,96293.36
2019-01-29T13:52:26.432Z,96288.81
2019-01-29T13:55:32.996Z,96284.66
2019-01-29T13:58:40.037Z,96293.30
2019-01-29T14:01:47.170Z,96291.07
2019-01-29T14:04:54.192Z,96286.73
2019-01-29T14:08:01.233Z,96282.56
2019-01-29T14:11:08.336Z,96278.50
2019-01-29T14:14:15.230Z,96272.74
2019-01-29T14:17:22.818Z,96277.38
2019-01-29T14:20:29.383Z,96274.12
2019-01-29T14:23:36.294Z,96271.80
2019-01-29T14:26:47.900Z,96281.37
2019-01-29T14:29:52.286Z,96276.03
2019-01-29T14:32:59.166Z,96270.15
2019-01-29T14:36:06.617Z,96268.78
2019-01-29T14:39:58.134Z,96266.31
2019-01-29T14:43:05.447Z,96263.80
2019-01-29T14:46:13.232Z,96264.15
2019-01-29T14:49:19.900Z,96263.03
2019-01-29T14:52:26.596Z,96257.87
2019-01-29T14:55:33.218Z,96254.03
2019-01-29T14:58:40.083Z,96260.55
2019-01-29T15:01:48.175Z,96254.58
2019-01-29T15:04:57.614Z,96257.66
2019-01-29T15:08:04.073Z,96247.60
2019-01-29T15:11:11.618Z,96245.58
2019-01-29T15:14:18.498Z,96245.10
2019-01-29T15:17:34.819Z,96245.59
2019-01-29T15:20:42.244Z,96243.83
2019-01-29T15:23:51.283Z,96241.59
2019-01-29T15:27:05.466Z,96242.89
2019-01-29T15:30:19.856Z,96241.11
2019-01-29T15:33:27.438Z,96235.53
2019-01-29T15:36:35.047Z,96236.30
2019-01-29T15:39:42.268Z,96236.27
2019-01-29T15:42:48.861Z,96234.88
2019-01-29T15:45:56.131Z,96226.66
2019-01-29T15:49:03.132Z,96226.83
2019-01-29T15:52:10.308Z,96229.06
2019-01-29T15:55:17.400Z,96230.31
2019-01-29T15:58:24.059Z,96227.36
2019-01-29T16:01:31.772Z,96222.21
2019-01-29T16:04:39.311Z,96222.62
2019-01-29T16:07:47.455Z,96227.94
2019-01-29T16:10:55.262Z,96232.55
2019-01-29T16:14:02.054Z,96227.87
2019-01-29T16:17:08.877Z,96226.92
2019-01-29T16:20:18.445Z,96227.20
2019-01-29T16:23:24.874Z,96225.63
2019-01-29T16:26:31.483Z,96227.81
2019-01-29T16:29:38.425Z,96227.39
2019-01-29T16:32:45.218Z,96228.09
2019-01-29T16:35:52.131Z,96233.29
2019-01-29T16:38:58.671Z,96229.88
2019-01-29T16:42:05.519Z,96234.94
2019-01-29T16:45:17.303Z,96235.20
2019-01-29T16:48:23.842Z,96228.17
2019-01-29T16:51:30.468Z,96220.27
2019-01-29T16:54:37.382Z,96225.34
2019-01-29T16:57:44.488Z,96219.31
2019-01-29T17:00:50.716Z,96211.05
2019-01-29T17:03:57.296Z,96210.02
2019-01-29T17:07:04.646Z,96210.53
2019-01-29T17:10:12.227Z,96206.73
2019-01-29T17:13:19.860Z,96202.34
2019-01-29T17:16:28.796Z,96199.98
2019-01-29T17:19:35.978Z,96204.45
2019-01-29T17:22:43.440Z,96199.75
2019-01-29T17:25:52.016Z,96197.66
2019-01-29T17:28:59.009Z,96193.17
2019-01-29T17:32:06.278Z,96185.55
2019-01-29T17:35:13.195Z,96188.14
2019-01-29T17:38:20.256Z,96190.33
2019-01-29T17:41:27.033Z,96188.48
2019-01-29T17:44:33.934Z,96189.30
2019-01-29T17:47:42.772Z,96183.92
2019-01-29T17:50:49.605Z,96179.94
2019-01-29T17:53:58.023Z,96180.37
2019-01-29T17:57:04.869Z,96177.20
2019-01-29T18:00:17.362Z,96172.05
2019-01-29T18:03:24.908Z,96172.34
2019-01-29T18:06:31.863Z,96169.92
2019-01-29T18:09:38.716Z,96167.14
2019-01-29T18:12:47.215Z,96165.02
2019-01-29T18:15:54.510Z,96159.98
2019-01-29T18:19:01.303Z,96150.06
2019-01-29T18:22:10.866Z,96146.17
2019-01-29T18:25:17.647Z,96140.31
2019-01-29T18:28:24.301Z,96137.78
2019-01-29T18:31:31.410Z,96135.12
2019-01-29T18:34:38.109Z,96126.19
2019-01-29T18:37:45.238Z,96120.16
2019-01-29T18:40:55.664Z,96112.00
2019-01-29T18:44:02.599Z,96114.62
2019-01-29T18:47:09.795Z,96114.90
2019-01-29T18:50:17.320Z,96114.33
2019-01-29T18:53:24.397Z,96114.73
2019-01-29T18:56:31.122Z,96104.86
2019-01-29T18:59:38.558Z,96103.99
2019-01-29T19:02:49.264Z,96110.58
2019-01-29T19:05:57.631Z,96105.80
2019-01-29T19:09:06.974Z,96100.48
2019-01-29T19:12:15.013Z,96087.94
2019-01-29T19:15:23.736Z,96079.67
2019-01-29T19:18:30.589Z,96077.72
2019-01-29T19:21:39.183Z,96081.25
2019-01-29T19:24:46.535Z,96081.11
2019-01-29T19:27:54.026Z,96076.41
2019-01-29T19:31:01.168Z,96070.44
2019-01-29T19:34:11.054Z,96071.53
2019-01-29T19:37:21.098Z,96066.07
2019-01-29T19:40:28.187Z,96060.73
2019-01-29T19:43:35.154Z,96055.72
2019-01-29T19:46:41.960Z,96046.14
2019-01-29T19:49:48.422Z,96050.28
2019-01-29T19:52:59.083Z,96054.58
2019-01-29T19:56:05.949Z,96045.81
2019-01-29T19:59:12.693Z,96049.11
2019-01-29T20:02:22.284Z,96046.52
2019-01-29T20:05:32.468Z,96040.70
2019-01-29T20:08:42.003Z,96034.60
2019-01-29T20:11:50.430Z,96031.27
2019-01-29T20:14:58.521Z,96027.63
2019-01-29T20:18:05.843Z,96029.63
2019-01-29T20:21:12.372Z,96026.99
2019-01-29T20:24:19.271Z,96026.30
2019-01-29T20:27:26.733Z,96022.76
2019-01-29T20:30:35.237Z,96027.47
2019-01-29T20:33:41.993Z,96027.37
2019-01-29T20:36:49.114Z,96025.59
2019-01-29T20:39:56.437Z,96029.69
2019-01-29T20:43:03.692Z,96024.17
2019-01-29T20:46:11.359Z,96019.19
2019-01-29T20:49:19.009Z,96018.76
2019-01-29T20:52:27.675Z,96004.25
2019-01-29T20:55:35.118Z,96000.02
2019-01-29T20:58:52.297Z,96001.89
2019-01-29T21:01:54.462Z,95996.86
2019-01-29T21:05:00.963Z,95996.20
2019-01-29T21:08:08.383Z,95983.05
2019-01-29T21:11:15.379Z,95986.19
2019-01-29T21:14:22.082Z,95982.40
2019-01-29T21:17:32.154Z,95979.99
2019-01-29T21:20:39.235Z,95978.45
2019-01-29T21:23:49.176Z,95974.16
2019-01-29T21:26:56.464Z,95966.91
2019-01-29T21:30:03.403Z,95961.05
2019-01-29T21:33:14.635Z,95957.74
2019-01-29T21:36:22.223Z,95946.84
2019-01-29T21:39:30.277Z,95952.45
2019-01-29T21:42:38.209Z,95944.70
2019-01-29T21:45:44.704Z,95942.55
2019-01-29T21:48:51.482Z,95933.73
2019-01-29T21:51:58.652Z,95931.77
2019-01-29T21:55:06.644Z,95924.95
2019-01-29T21:58:13.879Z,95930.63
2019-01-29T22:01:20.712Z,95919.39
2019-01-29T22:04:27.666Z,95921.77
2019-01-29T22:07:34.542Z,95916.22
2019-01-29T22:11:01.933Z,95915.50
2019-01-29T22:14:10.630Z,95911.11
2019-01-29T22:17:17.515Z,95913.32
2019-01-29T22:20:24.999Z,95911.96
2019-01-29T22:23:32.689Z,95904.84
2019-01-29T22:26:40.074Z,95910.41
2019-01-29T22:29:47.587Z,95906.97
2019-01-29T22:32:56.146Z,95900.31
2019-01-29T22:36:02.777Z,95901.48
2019-01-29T22:39:10.589Z,95899.78
2019-01-29T22:42:17.252Z,95890.55
2019-01-29T22:45:29.042Z,95882.83
2019-01-29T22:48:36.464Z,95882.41
2019-01-29T22:51:47.295Z,95877.90
2019-01-29T22:54:53.887Z,95880.97
2019-01-29T22:58:00.483Z,95879.03
2019-01-29T23:01:31.064Z,95878.36
2019-01-29T23:04:42.178Z,95870.22
2019-01-29T23:07:49.137Z,95862.50
2019-01-29T23:10:57.446Z,95861.89
2019-01-29T23:14:05.411Z,95858.56
2019-01-29T23:17:11.972Z,95861.25
2019-01-29T23:20:19.368Z,95854.14
2019-01-29T23:23:26.420Z,95853.05
2019-01-29T23:26:34.628Z,95850.58
2019-01-29T23:29:43.603Z,95835.59
2019-01-29T23:32:50.707Z,95832.76
2019-01-29T23:35:57.364Z,95833.18
2019-01-29T23:39:05.808Z,95828.56
2019-01-29T23:42:13.520Z,95823.75
2019-01-29T23:45:20.449Z,95821.07
2019-01-29T23:48:27.377Z,95817.09
2019-01-29T23:51:34.537Z,95813.62
2019-01-29T23:54:41.224Z,95806.25
2019-01-29T23:57:47.717Z,95804.20
